Time;durP1;ratioP1;P1;durP2;ratioP2;P2;SDS_P1;SDS_P2;PMS_P1;PMS_P2;Temp;Humidity;BMP_temperature;BMP_pressure;BME280_temperature;BME280_humidity;BME280_pressure;Samples;Min_cycle;Max_cycle;Signal;HPM_P1;HPM_P2
2021/01/11 04:02:46;;;;;;;12.47;5.80;;;;;;;-1.52;100.00;100840.81;1740466;78;21500;-70
2021/01/11 04:05:15;;;;;;;12.20;6.33;;;;;;;-1.52;100.00;100842.91;1822043;77;21246;-70
2021/01/11 04:07:43;;;;;;;9.05;6.03;;;;;;;-1.53;100.00;100842.55;1811991;77;21229;-71
2021/01/11 04:10:12;;;;;;;11.38;6.20;;;;;;;-1.53;100.00;100846.84;1776940;79;21179;-71
2021/01/11 04:12:40;;;;;;;13.32;6.97;;;;;;;-1.53;100.00;100853.23;1787546;78;21538;-70
2021/01/11 04:15:10;;;;;;;8.58;5.83;;;;;;;-1.53;100.00;100850.68;1782624;78;21124;-69
2021/01/11 04:17:38;;;;;;;11.00;6.08;;;;;;;-1.52;100.00;100846.73;1783081;78;21132;-70
2021/01/11 04:20:08;;;;;;;10.90;6.70;;;;;;;-1.51;100.00;100843.76;1784613;78;21245;-70
2021/01/11 04:22:36;;;;;;;10.30;6.55;;;;;;;-1.50;100.00;100840.28;1783155;78;21002;-70
2021/01/11 04:25:07;;;;;;;11.75;6.45;;;;;;;-1.48;100.00;100830.77;1784572;78;21045;-70
2021/01/11 04:27:36;;;;;;;10.10;5.83;;;;;;;-1.45;100.00;100834.88;1785572;78;21100;-69
2021/01/11 04:30:06;;;;;;;11.40;6.10;;;;;;;-1.42;100.00;100838.55;1775185;79;21623;-70
2021/01/11 04:32:35;;;;;;;10.80;6.08;;;;;;;-1.41;100.00;100846.11;1786174;78;21358;-70
2021/01/11 04:35:07;;;;;;;10.43;5.50;;;;;;;-1.39;100.00;100853.70;1787677;78;21203;-70
2021/01/11 04:37:39;;;;;;;9.63;6.03;;;;;;;-1.38;100.00;100854.88;1787259;78;21167;-71
2021/01/11 04:40:08;;;;;;;11.03;6.22;;;;;;;-1.36;100.00;100848.42;1784389;78;21033;-69
2021/01/11 04:42:45;;;;;;;11.93;5.87;;;;;;;-1.36;100.00;100850.97;1784959;78;20995;-70
2021/01/11 04:45:14;;;;;;;9.93;5.80;;;;;;;-1.36;100.00;100862.02;1786255;78;22287;-70
2021/01/11 04:47:43;;;;;;;8.63;4.62;;;;;;;-1.37;100.00;100858.26;1783108;78;21498;-70
2021/01/11 04:50:12;;;;;;;9.55;5.40;;;;;;;-1.36;100.00;100862.48;1785863;78;21178;-69
2021/01/11 04:52:41;;;;;;;8.58;4.47;;;;;;;-1.36;100.00;100853.07;1781119;78;21113;-69
2021/01/11 04:55:10;;;;;;;8.03;5.15;;;;;;;-1.35;100.00;100855.98;1785118;78;21382;-70
2021/01/11 04:57:39;;;;;;;9.18;4.97;;;;;;;-1.35;100.00;100865.39;1783860;78;21574;-70
2021/01/11 05:00:09;;;;;;;7.83;4.50;;;;;;;-1.33;100.00;100867.39;1752737;78;21135;-73
2021/01/11 05:02:45;;;;;;;9.33;5.40;;;;;;;-1.32;100.00;100863.48;1753320;78;21072;-69
2021/01/11 05:05:14;;;;;;;8.05;5.22;;;;;;;-1.30;100.00;100866.75;1746965;80;21211;-73
2021/01/11 05:07:42;;;;;;;10.38;5.15;;;;;;;-1.28;100.00;100870.52;1772313;79;21159;-70
2021/01/11 05:10:12;;;;;;;8.10;4.60;;;;;;;-1.28;100.00;100872.61;1770566;79;21361;-70
2021/01/11 05:12:41;;;;;;;25.77;12.80;;;;;;;-1.28;100.00;100867.95;1719496;82;21227;-70
2021/01/11 05:15:16;;;;;;;9.78;5.67;;;;;;;-1.30;100.00;100866.75;1768870;80;21152;-74
2021/01/11 05:17:45;;;;;;;7.80;4.60;;;;;;;-1.29;100.00;100864.58;1769035;80;21602;-71
2021/01/11 05:20:15;;;;;;;9.73;4.83;;;;;;;-1.27;100.00;100855.06;1766947;80;21563;-73
2021/01/11 05:22:49;;;;;;;8.83;4.78;;;;;;;-1.25;100.00;100860.07;1770117;80;21357;-72
2021/01/11 05:25:19;;;;;;;9.73;4.72;;;;;;;-1.26;100.00;100859.26;1757559;80;21194;-69
2021/01/11 05:28:11;;;;;;;8.65;4.40;;;;;;;-1.25;100.00;100871.16;1759688;79;21146;-69
2021/01/11 05:30:40;;;;;;;;;;;;;;;-1.22;100.00;100877.80;1761849;79;21194;-69
2021/01/11 05:33:11;;;;;;;6.40;3.95;;;;;;;-1.19;100.00;100884.48;1761073;79;20239;-67
2021/01/11 05:35:40;;;;;;;8.40;4.70;;;;;;;-1.18;100.00;100884.83;1760351;79;27991;-67
2021/01/11 05:38:18;;;;;;;6.60;3.77;;;;;;;-1.16;100.00;100894.53;1758530;79;21203;-66
2021/01/11 05:40:47;;;;;;;6.87;3.92;;;;;;;-1.16;100.00;100891.97;1757437;79;21080;-67
2021/01/11 05:43:22;;;;;;;7.67;4.40;;;;;;;-1.15;100.00;100891.05;1758498;79;21106;-68
2021/01/11 05:45:50;;;;;;;7.60;4.70;;;;;;;-1.15;100.00;100888.03;1759052;80;21504;-68
2021/01/11 05:48:19;;;;;;;6.92;4.17;;;;;;;-1.12;100.00;100897.27;1758883;79;22355;-68
2021/01/11 05:50:49;;;;;;;8.08;4.15;;;;;;;-1.09;100.00;100898.37;1816047;77;21010;-68
2021/01/11 05:53:25;;;;;;;6.85;4.17;;;;;;;-1.07;100.00;100898.63;1810898;77;21062;-69
2021/01/11 05:55:55;;;;;;;7.50;4.10;;;;;;;-1.05;100.00;100904.48;1815625;77;21102;-68
2021/01/11 05:58:25;;;;;;;7.37;4.40;;;;;;;-1.03;100.00;100906.94;1819135;77;21186;-68
2021/01/11 06:00:54;;;;;;;6.67;3.80;;;;;;;-1.01;100.00;100907.69;1820959;77;21459;-69
2021/01/11 06:03:22;;;;;;;8.68;4.90;;;;;;;-0.99;100.00;100912.23;1820027;78;21064;-68
2021/01/11 06:05:52;;;;;;;6.83;3.95;;;;;;;-0.98;100.00;100901.11;1822834;77;21398;-68
2021/01/11 06:08:21;;;;;;;7.70;4.40;;;;;;;-0.96;100.00;100909.49;1823121;77;20995;-70
2021/01/11 06:10:50;;;;;;;7.87;4.58;;;;;;;-0.95;100.00;100903.45;1818719;77;21076;-68
2021/01/11 06:13:18;;;;;;;8.83;4.95;;;;;;;-0.94;100.00;100900.00;1822065;77;21577;-69
2021/01/11 06:15:47;;;;;;;8.23;4.65;;;;;;;-0.90;100.00;100896.34;1819495;77;21832;-66
2021/01/11 06:18:17;;;;;;;7.55;4.05;;;;;;;-0.88;100.00;100894.49;1810720;78;21110;-67
2021/01/11 06:20:46;;;;;;;6.35;4.08;;;;;;;-0.85;100.00;100896.88;1820138;77;21126;-70
2021/01/11 06:23:27;;;;;;;6.72;3.80;;;;;;;-0.83;100.00;100904.02;1823355;77;21614;-69
2021/01/11 06:25:56;;;;;;;7.95;4.72;;;;;;;-0.81;100.00;100900.88;1820554;77;21363;-69
2021/01/11 06:28:35;;;;;;;6.28;3.72;;;;;;;-0.79;100.00;100912.33;1817000;78;21079;-69
2021/01/11 06:31:11;;;;;;;7.08;3.67;;;;;;;-0.79;100.00;100914.42;1817142;77;21010;-69
2021/01/11 06:33:40;;;;;;;6.75;3.92;;;;;;;-0.81;100.00;100913.69;1818057;77;21123;-70
2021/01/11 06:36:31;;;;;;;7.62;4.05;;;;;;;-0.80;100.00;100919.16;1814842;77;21140;-70
2021/01/11 06:39:08;;;;;;;8.35;4.78;;;;;;;-0.80;100.00;100915.31;1821039;77;22143;-69
2021/01/11 06:41:38;;;;;;;8.08;4.55;;;;;;;-0.78;100.00;100923.73;1819787;77;21000;-71
2021/01/11 06:44:08;;;;;;;8.28;4.60;;;;;;;-0.76;100.00;100919.36;1821534;77;21511;-70
2021/01/11 06:46:46;;;;;;;6.05;3.33;;;;;;;-0.74;100.00;100923.91;1817613;77;21551;-70
2021/01/11 06:49:26;;;;;;;5.80;3.25;;;;;;;-0.70;100.00;100921.17;1819055;77;21166;-70
2021/01/11 06:52:12;;;;;;;5.70;2.90;;;;;;;-0.68;100.00;100924.44;1821052;77;22259;-70
2021/01/11 06:54:43;;;;;;;7.45;3.60;;;;;;;-0.67;100.00;100927.39;1821800;77;21569;-69
2021/01/11 06:57:17;;;;;;;6.25;3.20;;;;;;;-0.68;100.00;100924.44;1822310;77;21171;-69
2021/01/11 06:59:47;;;;;;;5.75;2.85;;;;;;;-0.67;100.00;100926.11;1820441;77;21060;-71
2021/01/11 07:02:25;;;;;;;5.28;2.50;;;;;;;-0.64;100.00;100925.47;1821648;77;21102;-69
2021/01/11 07:04:53;;;;;;;7.75;4.58;;;;;;;-0.62;100.00;100930.02;1818671;77;21188;-68
2021/01/11 07:07:25;;;;;;;9.40;4.65;;;;;;;-0.57;100.00;100920.77;1815502;77;21213;-70
2021/01/11 07:09:57;;;;;;;13.50;5.78;;;;;;;-0.47;100.00;100914.63;1817633;77;21012;-70
2021/01/11 07:12:26;;;;;;;8.30;4.35;;;;;;;-0.40;100.00;100919.27;1816080;77;21111;-69
2021/01/11 07:15:06;;;;;;;7.97;4.15;;;;;;;-0.35;100.00;100920.25;1813528;78;21131;-70
2021/01/11 07:17:42;;;;;;;10.78;5.45;;;;;;;-0.29;100.00;100914.30;1813326;77;21433;-72
2021/01/11 07:20:16;;;;;;;8.53;4.33;;;;;;;-0.22;100.00;100903.67;1814775;77;21218;-73
2021/01/11 07:22:45;;;;;;;8.00;4.65;;;;;;;-0.19;100.00;100899.61;1812142;77;21491;-72
2021/01/11 07:25:24;;;;;;;10.40;4.50;;;;;;;-0.17;100.00;100899.06;1816154;77;21206;-73
2021/01/11 07:27:56;;;;;;;8.88;4.92;;;;;;;-0.16;100.00;100895.11;1815349;77;21136;-72
2021/01/11 07:30:25;;;;;;;13.25;5.20;;;;;;;-0.09;100.00;100891.70;1814973;77;22091;-71
2021/01/11 07:32:54;;;;;;;7.65;4.47;;;;;;;-0.05;100.00;100891.40;1814757;77;21346;-72
2021/01/11 07:35:23;;;;;;;9.23;5.83;;;;;;;0.02;100.00;100900.80;1818401;77;21087;-72
2021/01/11 07:37:52;;;;;;;9.83;5.12;;;;;;;0.08;100.00;100913.23;1817110;77;21215;-72
2021/01/11 07:40:22;;;;;;;15.50;7.70;;;;;;;0.16;100.00;100909.70;1815439;77;21104;-71
2021/01/11 07:42:51;;;;;;;8.45;4.60;;;;;;;0.21;100.00;100906.38;1815953;77;22453;-72
2021/01/11 07:45:19;;;;;;;9.48;4.90;;;;;;;0.25;100.00;100903.15;1814471;77;20992;-71
2021/01/11 07:47:52;;;;;;;8.75;4.83;;;;;;;0.26;100.00;100906.53;1816518;77;21140;-72
2021/01/11 07:50:28;;;;;;;9.45;4.85;;;;;;;0.25;100.00;100909.56;1814562;77;21143;-71
2021/01/11 07:52:58;;;;;;;7.90;4.78;;;;;;;0.20;100.00;100911.61;1790621;77;21496;-72
2021/01/11 07:55:33;;;;;;;8.90;4.75;;;;;;;0.22;100.00;100914.87;1815020;77;21348;-72
2021/01/11 07:58:03;;;;;;;6.90;4.15;;;;;;;0.27;100.00;100915.88;1812630;77;21720;-70
2021/01/11 08:00:33;;;;;;;7.78;4.05;;;;;;;0.35;100.00;100918.77;1815140;77;21028;-73
2021/01/11 08:03:01;;;;;;;16.55;7.55;;;;;;;0.42;100.00;100914.41;1817923;77;21544;-73
2021/01/11 08:05:32;;;;;;;26.73;11.48;;;;;;;0.46;100.00;100911.19;1813927;77;21533;-72
2021/01/11 08:08:25;;;;;;;9.35;4.58;;;;;;;0.47;100.00;100917.95;1814071;77;21040;-71
2021/01/11 08:10:57;;;;;;;8.88;4.22;;;;;;;0.46;100.00;100915.84;1702085;82;21183;-71
2021/01/11 08:13:25;;;;;;;7.90;4.28;;;;;;;0.54;100.00;100923.50;1705676;82;21129;-72
2021/01/11 08:15:54;;;;;;;7.83;4.47;;;;;;;0.64;100.00;100924.51;1721247;82;21086;-71
2021/01/11 08:18:22;;;;;;;6.80;4.17;;;;;;;0.71;100.00;100921.42;1700464;82;21211;-71
2021/01/11 08:20:51;;;;;;;8.83;4.95;;;;;;;0.80;100.00;100908.92;1699470;82;22521;-71
2021/01/11 08:23:22;;;;;;;14.50;8.80;;;;;;;0.88;100.00;100913.08;1707500;82;21121;-70
2021/01/11 08:25:52;;;;;;;14.35;7.83;;;;;;;0.89;100.00;100914.70;1691871;82;21504;-70
2021/01/11 08:28:21;;;;;;;12.58;6.37;;;;;;;0.92;100.00;100917.07;1708752;83;21070;-71
2021/01/11 08:30:50;;;;;;;9.85;5.22;;;;;;;1.00;100.00;100915.27;1725240;82;21117;-70
2021/01/11 08:33:20;;;;;;;9.20;4.60;;;;;;;1.09;100.00;100903.88;1655834;83;21238;-70
2021/01/11 08:35:49;;;;;;;7.20;3.95;;;;;;;1.21;100.00;100898.36;1755227;81;22402;-71
2021/01/11 08:38:18;;;;;;;6.78;3.60;;;;;;;1.33;100.00;100898.80;1749041;81;21024;-71
2021/01/11 08:40:49;;;;;;;6.33;3.30;;;;;;;1.41;100.00;100904.69;1736479;81;21147;-70
2021/01/11 08:43:20;;;;;;;5.97;3.08;;;;;;;1.44;100.00;100904.48;1723478;82;21559;-70
2021/01/11 08:45:53;;;;;;;6.58;3.70;;;;;;;1.43;100.00;100897.21;1718446;82;39381;-70
2021/01/11 08:48:25;;;;;;;7.00;3.75;;;;;;;1.42;100.00;100906.32;1719931;82;21018;-70
2021/01/11 08:50:58;;;;;;;7.20;3.80;;;;;;;1.39;100.00;100913.77;1717753;82;21154;-69
2021/01/11 08:53:29;;;;;;;6.72;3.77;;;;;;;1.36;100.00;100913.16;1719634;82;21123;-69
2021/01/11 08:56:07;;;;;;;6.62;3.85;;;;;;;1.26;100.00;100915.57;1718231;82;21023;-69
2021/01/11 08:58:50;;;;;;;8.90;5.47;;;;;;;1.16;100.00;100909.42;1719360;81;21372;-69
2021/01/11 09:01:24;;;;;;;7.67;4.00;;;;;;;1.09;100.00;100908.20;1704590;82;21255;-69
2021/01/11 09:03:54;;;;;;;8.38;4.00;;;;;;;1.03;100.00;100910.73;1705117;82;21172;-70
2021/01/11 09:06:41;;;;;;;16.50;8.58;;;;;;;1.00;100.00;100916.08;1717542;81;21100;-68
2021/01/11 09:09:14;;;;;;;37.70;20.12;;;;;;;0.96;100.00;100915.94;1713124;81;21231;-68
2021/01/11 09:11:45;;;;;;;83.27;48.78;;;;;;;0.91;100.00;100924.39;1710579;81;21203;-68
2021/01/11 09:14:16;;;;;;;17.77;9.18;;;;;;;0.90;100.00;100918.91;1711718;81;21041;-67
2021/01/11 09:16:46;;;;;;;8.67;5.70;;;;;;;0.90;100.00;100913.30;1710549;81;21105;-69
2021/01/11 09:19:17;;;;;;;22.58;15.65;;;;;;;0.88;100.00;100916.45;1707945;81;21171;-68
2021/01/11 09:22:00;;;;;;;13.28;8.35;;;;;;;0.88;100.00;100921.59;1704439;82;21476;-70
2021/01/11 09:24:29;;;;;;;11.20;7.37;;;;;;;0.89;100.00;100917.27;1703277;82;21177;-67
2021/01/11 09:26:57;;;;;;;11.08;6.08;;;;;;;0.90;100.00;100912.02;1703208;82;21030;-69
2021/01/11 09:29:26;;;;;;;10.98;7.35;;;;;;;0.91;100.00;100907.27;1707082;82;21582;-67
2021/01/11 09:31:55;;;;;;;9.28;6.20;;;;;;;0.92;100.00;100900.39;1710118;81;21599;-66
2021/01/11 09:34:24;;;;;;;9.08;5.12;;;;;;;0.96;100.00;100896.69;1703922;82;22429;-67
2021/01/11 09:36:53;;;;;;;10.60;5.92;;;;;;;0.99;100.00;100893.09;1707170;81;21221;-69
2021/01/11 09:39:21;;;;;;;7.92;5.50;;;;;;;1.05;100.00;100893.47;1709434;81;21100;-66
2021/01/11 09:41:59;;;;;;;10.55;5.22;;;;;;;1.10;100.00;100889.30;1708240;81;21053;-68
2021/01/11 09:44:29;;;;;;;10.08;5.87;;;;;;;1.15;100.00;100885.50;1710539;81;21254;-68
2021/01/11 09:46:58;;;;;;;13.05;9.18;;;;;;;1.19;100.00;100888.20;1706309;81;21659;-68
2021/01/11 09:49:26;;;;;;;10.95;6.40;;;;;;;1.23;100.00;100884.14;1708232;81;22518;-69
2021/01/11 09:51:55;;;;;;;8.93;5.58;;;;;;;1.27;100.00;100883.00;1709170;81;21243;-69
2021/01/11 09:54:24;;;;;;;8.25;5.08;;;;;;;1.28;100.00;100882.06;1707856;81;21172;-67
2021/01/11 09:56:52;;;;;;;7.87;4.95;;;;;;;1.31;100.00;100889.56;1708117;81;21220;-69
2021/01/11 09:59:22;;;;;;;8.25;5.65;;;;;;;1.32;100.00;100890.72;1702957;81;21116;-69
2021/01/11 10:01:51;;;;;;;7.00;4.78;;;;;;;1.35;100.00;100888.41;1703845;81;21371;-69
2021/01/11 10:04:19;;;;;;;7.05;4.37;;;;;;;1.37;100.00;100881.44;1700438;82;21506;-69
2021/01/11 10:06:51;;;;;;;9.15;5.30;;;;;;;1.38;100.00;100881.78;1699966;82;21177;-69
2021/01/11 10:09:21;;;;;;;8.20;4.77;;;;;;;1.37;100.00;100880.15;1708036;81;21598;-67
2021/01/11 10:11:56;;;;;;;7.50;4.95;;;;;;;1.36;100.00;100882.34;1711683;81;21108;-67
2021/01/11 10:14:25;;;;;;;7.33;4.50;;;;;;;1.27;100.00;100875.30;1713147;81;21383;-68
2021/01/11 10:16:53;;;;;;;8.08;4.72;;;;;;;1.21;100.00;100873.96;1707360;81;21095;-67
2021/01/11 10:19:24;;;;;;;8.78;5.33;;;;;;;1.20;100.00;100871.86;1704001;82;21121;-68
2021/01/11 10:21:53;;;;;;;8.13;4.83;;;;;;;1.23;100.00;100877.72;1702490;82;21105;-68
2021/01/11 10:24:23;;;;;;;7.87;4.92;;;;;;;1.24;100.00;100875.03;1705507;82;21206;-68
2021/01/11 10:26:51;;;;;;;7.65;4.60;;;;;;;1.28;100.00;100877.74;1706775;81;21214;-67
2021/01/11 10:29:23;;;;;;;8.55;5.40;;;;;;;1.32;100.00;100879.63;1710471;81;21214;-68
2021/01/11 10:31:52;;;;;;;9.88;5.97;;;;;;;1.35;100.00;100879.42;1709253;81;21492;-69
2021/01/11 10:34:20;;;;;;;9.60;5.15;;;;;;;1.35;100.00;100876.39;1709988;81;21541;-69
2021/01/11 10:36:51;;;;;;;7.12;4.28;;;;;;;1.37;100.00;100866.02;1709925;81;21185;-69
2021/01/11 10:39:21;;;;;;;9.18;4.97;;;;;;;1.37;100.00;100863.45;1707704;81;21385;-67
2021/01/11 10:41:52;;;;;;;6.42;4.05;;;;;;;1.35;100.00;100866.58;1709556;81;21528;-66
2021/01/11 10:44:22;;;;;;;5.47;3.55;;;;;;;1.35;100.00;100857.59;1704479;81;21815;-67
2021/01/11 10:46:51;;;;;;;8.15;4.15;;;;;;;1.36;100.00;100842.53;1707472;81;21196;-65
2021/01/11 10:49:20;;;;;;;6.72;4.10;;;;;;;1.36;100.00;100829.22;1706010;81;21652;-70
2021/01/11 10:51:49;;;;;;;12.73;4.78;;;;;;;1.36;100.00;100837.39;1710567;81;22519;-68
2021/01/11 10:54:18;;;;;;;6.55;3.87;;;;;;;1.38;100.00;100841.97;1709400;81;21610;-69
2021/01/11 10:56:48;;;;;;;8.08;4.40;;;;;;;1.40;100.00;100838.81;1710900;81;21188;-69
2021/01/11 10:59:16;;;;;;;6.92;4.35;;;;;;;1.40;100.00;100831.10;1687656;81;21262;-69
2021/01/11 11:01:45;;;;;;;6.83;4.53;;;;;;;1.37;100.00;100823.17;1709768;81;21155;-68
2021/01/11 11:04:13;;;;;;;9.83;5.83;;;;;;;1.34;100.00;100822.57;1709364;81;21185;-68
2021/01/11 11:06:41;;;;;;;8.43;4.60;;;;;;;1.28;100.00;100814.82;1708554;81;21192;-68
2021/01/11 11:09:10;;;;;;;8.95;5.55;;;;;;;1.20;100.00;100820.50;1705722;81;21194;-69
2021/01/11 11:11:39;;;;;;;8.80;5.22;;;;;;;1.10;100.00;100822.10;1713743;81;21239;-69
2021/01/11 11:14:08;;;;;;;7.17;4.10;;;;;;;1.05;100.00;100818.20;1707317;81;22271;-69
2021/01/11 11:16:38;;;;;;;6.83;3.83;;;;;;;1.04;100.00;100819.95;1710237;81;21423;-69
2021/01/11 11:19:09;;;;;;;7.10;4.37;;;;;;;1.06;100.00;100818.55;1728272;81;21603;-68
2021/01/11 11:21:40;;;;;;;7.90;4.45;;;;;;;1.07;100.00;100826.16;1715017;81;21224;-68
2021/01/11 11:24:11;;;;;;;6.83;4.30;;;;;;;1.09;100.00;100825.58;1708212;81;21633;-68
2021/01/11 11:26:42;;;;;;;7.40;4.12;;;;;;;1.08;100.00;100830.83;1712043;81;21111;-66
2021/01/11 11:29:11;;;;;;;8.10;4.30;;;;;;;1.09;100.00;100837.13;1705959;81;22662;-67
2021/01/11 11:31:44;;;;;;;7.15;4.17;;;;;;;1.11;100.00;100845.55;1709050;81;21027;-67
2021/01/11 11:34:18;;;;;;;7.97;4.70;;;;;;;1.10;100.00;100849.06;1707793;81;21140;-67
2021/01/11 11:36:46;;;;;;;6.42;4.03;;;;;;;1.09;100.00;100851.72;1708743;81;21186;-67
2021/01/11 11:39:15;;;;;;;7.62;4.58;;;;;;;1.06;100.00;100861.76;1710107;81;21213;-67
2021/01/11 11:41:45;;;;;;;7.60;4.22;;;;;;;1.03;100.00;100865.00;1711208;81;21379;-67
2021/01/11 11:44:13;;;;;;;6.35;4.33;;;;;;;1.04;100.00;100869.20;1709615;81;21200;-67
2021/01/11 11:46:42;;;;;;;7.55;4.10;;;;;;;1.03;100.00;100868.38;1709129;81;21144;-67
2021/01/11 11:49:11;;;;;;;8.98;4.00;;;;;;;1.04;100.00;100868.73;1705037;81;21207;-68
2021/01/11 11:51:45;;;;;;;8.43;5.03;;;;;;;1.02;100.00;100874.42;1711122;81;21228;-67
2021/01/11 11:54:13;;;;;;;7.30;4.10;;;;;;;0.96;100.00;100876.14;1708965;81;21200;-65
2021/01/11 11:56:42;;;;;;;6.95;4.03;;;;;;;0.88;100.00;100879.70;1707909;81;21179;-66
2021/01/11 11:59:11;;;;;;;7.80;4.15;;;;;;;0.83;100.00;100881.28;1705845;81;21175;-66
2021/01/11 12:01:40;;;;;;;9.53;5.28;;;;;;;0.78;100.00;100885.09;1704696;81;21128;-67
2021/01/11 12:04:10;;;;;;;11.38;5.85;;;;;;;0.70;100.00;100886.44;1707518;83;21131;-66
2021/01/11 12:06:46;;;;;;;8.45;4.60;;;;;;;0.65;100.00;100894.92;1713729;81;21224;-66
2021/01/11 12:09:14;;;;;;;8.33;5.00;;;;;;;0.58;100.00;100891.12;1720364;82;21670;-66
2021/01/11 12:11:49;;;;;;;9.53;5.10;;;;;;;0.54;100.00;100889.69;1738283;81;21160;-67
2021/01/11 12:14:18;;;;;;;9.15;4.28;;;;;;;0.53;100.00;100886.77;1723471;81;21686;-66
2021/01/11 12:16:48;;;;;;;7.53;3.80;;;;;;;0.53;100.00;100886.77;1730274;82;21630;-68
2021/01/11 12:19:17;;;;;;;8.75;4.25;;;;;;;0.50;100.00;100892.09;1724619;82;22827;-66
2021/01/11 12:21:46;;;;;;;7.80;4.28;;;;;;;0.45;100.00;100883.88;1741251;82;21512;-66
2021/01/11 12:24:15;;;;;;;8.48;4.42;;;;;;;0.41;100.00;100886.28;1733078;82;21149;-66
2021/01/11 12:26:46;;;;;;;6.50;4.03;;;;;;;0.36;100.00;100884.50;1734882;82;21013;-68
2021/01/11 12:29:14;;;;;;;7.17;3.77;;;;;;;0.33;100.00;100880.84;1737337;82;21206;-65
2021/01/11 12:31:44;;;;;;;13.55;4.55;;;;;;;0.34;100.00;100879.91;1738634;82;21363;-64
2021/01/11 12:34:13;;;;;;;14.53;6.78;;;;;;;0.38;100.00;100882.63;1735969;82;21076;-66
2021/01/11 12:36:42;;;;;;;11.40;5.40;;;;;;;0.40;100.00;100880.80;1741728;81;21127;-68
2021/01/11 12:39:11;;;;;;;9.08;5.10;;;;;;;0.43;100.00;100883.17;1727131;82;22538;-67
2021/01/11 12:41:39;;;;;;;10.35;5.60;;;;;;;0.46;100.00;100890.66;1737233;82;21195;-64
2021/01/11 12:44:09;;;;;;;13.40;6.42;;;;;;;0.43;100.00;100887.83;1733146;82;22119;-64
2021/01/11 12:46:37;;;;;;;11.60;5.90;;;;;;;0.39;100.00;100885.58;1735886;82;21215;-67
2021/01/11 12:49:06;;;;;;;12.78;7.10;;;;;;;0.37;100.00;100891.26;1723515;82;21607;-66
2021/01/11 12:51:35;;;;;;;10.48;5.62;;;;;;;0.37;100.00;100898.48;1725084;82;21188;-66
2021/01/11 12:54:05;;;;;;;9.60;6.00;;;;;;;0.37;100.00;100908.75;1733938;82;20938;-65
2021/01/11 12:56:34;;;;;;;9.93;5.60;;;;;;;0.35;100.00;100908.51;1732247;82;21201;-65
2021/01/11 12:59:02;;;;;;;14.05;8.23;;;;;;;0.36;100.00;100913.52;1733452;82;21595;-65
2021/01/11 13:01:31;;;;;;;11.88;7.47;;;;;;;0.38;100.00;100921.10;1734838;82;21390;-66
2021/01/11 13:04:01;;;;;;;10.00;5.62;;;;;;;0.39;100.00;100927.43;1731965;82;21027;-67
2021/01/11 13:06:33;;;;;;;11.05;7.85;;;;;;;0.40;100.00;100940.61;1737714;81;21121;-68
2021/01/11 13:09:01;;;;;;;11.53;5.85;;;;;;;0.39;100.00;100944.56;1729103;82;21197;-67
2021/01/11 13:11:29;;;;;;;8.10;5.37;;;;;;;0.40;100.00;100944.92;1724347;82;21151;-66
2021/01/11 13:14:02;;;;;;;8.28;4.75;;;;;;;0.39;100.00;100947.95;1721271;82;21239;-66
2021/01/11 13:16:32;;;;;;;10.95;6.17;;;;;;;0.39;100.00;100949.70;1727278;81;21256;-68
2021/01/11 13:19:02;;;;;;;9.33;5.78;;;;;;;0.37;100.00;100956.66;1724712;82;21130;-66
2021/01/11 13:21:31;;;;;;;8.83;5.42;;;;;;;0.33;100.00;100959.88;1721947;82;22446;-66
2021/01/11 13:24:01;;;;;;;9.45;5.70;;;;;;;0.26;100.00;100953.96;1720847;82;21157;-66
2021/01/11 13:26:35;;;;;;;8.68;5.37;;;;;;;0.17;100.00;100956.20;1721453;82;20987;-67
2021/01/11 13:29:06;;;;;;;9.25;4.85;;;;;;;0.06;100.00;100949.66;1722643;82;21681;-67
2021/01/11 13:31:46;;;;;;;11.97;4.80;;;;;;;-0.03;100.00;100960.05;1727152;82;21161;-66
2021/01/11 13:34:16;;;;;;;9.15;5.45;;;;;;;-0.09;100.00;100968.58;1715504;82;21264;-66
2021/01/11 13:36:44;;;;;;;9.43;5.00;;;;;;;-0.16;100.00;100964.75;1711973;82;21081;-66
2021/01/11 13:39:13;;;;;;;10.35;4.92;;;;;;;-0.22;100.00;100962.59;1705399;82;21678;-66
2021/01/11 13:41:43;;;;;;;10.13;5.92;;;;;;;-0.27;100.00;100962.86;1709036;82;21205;-66
2021/01/11 13:44:13;;;;;;;9.40;5.37;;;;;;;-0.34;100.00;100953.48;1707022;82;21573;-68
2021/01/11 13:46:44;;;;;;;7.78;4.33;;;;;;;-0.37;100.00;100956.69;1704683;83;21423;-67
2021/01/11 13:49:15;;;;;;;7.45;4.40;;;;;;;-0.44;100.00;100947.27;1707951;82;21248;-66
2021/01/11 13:51:48;;;;;;;11.48;7.22;;;;;;;-0.50;100.00;100954.05;1706608;82;21144;-65
2021/01/11 13:54:16;;;;;;;8.98;4.25;;;;;;;-0.54;100.00;100953.87;1708702;82;21812;-65
2021/01/11 13:56:45;;;;;;;24.12;18.02;;;;;;;-0.58;100.00;100951.14;1702188;83;21553;-66
2021/01/11 13:59:13;;;;;;;9.28;6.10;;;;;;;-0.61;100.00;100959.81;1707436;82;21207;-66
2021/01/11 14:01:42;;;;;;;10.72;6.30;;;;;;;-0.63;100.00;100951.89;1710347;82;21197;-67
2021/01/11 14:04:10;;;;;;;11.75;5.83;;;;;;;-0.65;100.00;100958.83;1706701;82;21203;-66
2021/01/11 14:06:39;;;;;;;9.13;5.60;;;;;;;-0.68;100.00;100961.56;1707349;81;21573;-66
2021/01/11 14:09:07;;;;;;;13.83;8.70;;;;;;;-0.67;100.00;100965.80;1706653;82;21211;-62
2021/01/11 14:11:36;;;;;;;9.20;5.30;;;;;;;-0.67;100.00;100968.36;1700046;82;21259;-64
2021/01/11 14:14:04;;;;;;;9.80;6.08;;;;;;;-0.67;100.00;100964.52;1695669;83;22645;-67
2021/01/11 14:16:33;;;;;;;10.00;6.08;;;;;;;-0.67;100.00;100970.91;1695616;83;21535;-63
2021/01/11 14:19:01;;;;;;;14.38;9.28;;;;;;;-0.69;100.00;100970.17;1695373;83;21168;-64
2021/01/11 14:21:30;;;;;;;12.70;8.45;;;;;;;-0.72;100.00;100970.35;1695499;83;21143;-64
2021/01/11 14:24:02;;;;;;;11.85;6.08;;;;;;;-0.74;100.00;100975.58;1695407;83;22493;-64
2021/01/11 14:26:33;;;;;;;14.85;8.33;;;;;;;-0.75;100.00;100971.38;1696929;83;21906;-63
2021/01/11 14:29:01;;;;;;;122.82;55.15;;;;;;;-0.76;100.00;100965.44;1697277;83;21206;-63
2021/01/11 14:31:29;;;;;;;37.17;20.77;;;;;;;-0.77;100.00;100961.21;1697346;83;21037;-63
2021/01/11 14:33:59;;;;;;;32.08;19.80;;;;;;;-0.80;100.00;100963.13;1704901;82;21089;-64
2021/01/11 14:36:30;;;;;;;36.08;21.05;;;;;;;-0.83;100.00;100954.39;1715405;82;21246;-63
2021/01/11 14:39:00;;;;;;;172.68;113.60;;;;;;;-0.87;100.00;100956.73;1711234;83;21751;-63
2021/01/11 14:41:28;;;;;;;38.83;28.20;;;;;;;-0.89;100.00;100949.63;1710827;83;21626;-64
2021/01/11 14:43:58;;;;;;;13.13;8.63;;;;;;;-0.92;100.00;100944.22;1711897;83;21179;-66
2021/01/11 14:46:26;;;;;;;12.58;6.97;;;;;;;-0.95;100.00;100943.58;1687357;84;21068;-64
2021/01/11 14:48:57;;;;;;;8.83;5.45;;;;;;;-0.99;100.00;100945.03;1682500;84;21391;-64
2021/01/11 14:51:25;;;;;;;11.35;8.88;;;;;;;-1.00;100.00;100947.70;1685329;84;21085;-64
2021/01/11 14:53:54;;;;;;;9.60;6.65;;;;;;;-1.02;100.00;100939.31;1690152;83;21117;-65
2021/01/11 14:56:23;;;;;;;9.20;5.35;;;;;;;-1.03;100.00;100934.63;1684651;83;21585;-66
2021/01/11 14:58:53;;;;;;;6.90;3.87;;;;;;;-1.03;100.00;100934.63;1686620;84;21124;-65
2021/01/11 15:01:23;;;;;;;9.55;5.92;;;;;;;-1.05;100.00;100933.09;1685619;84;22542;-66
2021/01/11 15:03:51;;;;;;;6.55;3.67;;;;;;;-1.07;100.00;100932.34;1684590;83;21163;-64
2021/01/11 15:06:20;;;;;;;7.20;3.80;;;;;;;-1.09;100.00;100929.07;1683606;83;21562;-63
2021/01/11 15:08:49;;;;;;;6.45;3.77;;;;;;;-1.11;100.00;100932.16;1683909;84;21194;-67
2021/01/11 15:11:19;;;;;;;6.15;2.92;;;;;;;-1.13;100.00;100934.01;1677021;83;21200;-68
2021/01/11 15:13:51;;;;;;;7.20;3.90;;;;;;;-1.14;100.00;100934.90;1694997;84;21256;-70
2021/01/11 15:16:25;;;;;;;;;;;;;;;-1.15;100.00;100929.42;1697103;83;21438;-66
2021/01/11 15:18:54;;;;;;;7.83;5.33;;;;;;;-1.16;100.00;100930.34;1691467;83;20230;-67
2021/01/11 15:21:23;;;;;;;7.37;4.33;;;;;;;-1.18;100.00;100937.27;1694898;83;21050;-67
2021/01/11 15:23:53;;;;;;;5.40;3.15;;;;;;;-1.19;100.00;100941.58;1695118;83;21583;-67
2021/01/11 15:26:21;;;;;;;6.83;3.87;;;;;;;-1.20;100.00;100941.22;1695471;83;21262;-68
2021/01/11 15:28:50;;;;;;;6.80;3.77;;;;;;;-1.22;100.00;100946.41;1693358;83;21180;-67
2021/01/11 15:31:23;;;;;;;5.80;3.20;;;;;;;-1.22;100.00;100947.68;1711914;82;21661;-67
2021/01/11 15:33:52;;;;;;;4.70;2.80;;;;;;;-1.23;100.00;100940.93;1715814;83;21246;-66
2021/01/11 15:36:26;;;;;;;5.40;3.22;;;;;;;-1.26;100.00;100941.11;1687890;84;21125;-66